createdAt,value
2023-01-26T00:01:14.830Z,-1.40
2023-01-26T00:03:41.666Z,-1.40
2023-01-26T00:06:10.744Z,-1.40
2023-01-26T00:08:47.853Z,-1.40
2023-01-26T00:11:17.069Z,-1.50
2023-01-26T00:13:44.069Z,-1.40
2023-01-26T00:16:14.032Z,-1.40
2023-01-26T00:18:42.218Z,-1.50
2023-01-26T00:21:13.366Z,-1.40
2023-01-26T00:23:40.061Z,-1.50
2023-01-26T00:26:07.490Z,-1.50
2023-01-26T00:28:34.177Z,-1.60
2023-01-26T00:31:04.435Z,-1.60
2023-01-26T00:33:31.165Z,-1.60
2023-01-26T00:35:57.742Z,-1.70
2023-01-26T00:38:24.502Z,-1.70
2023-01-26T00:40:51.264Z,-1.70
2023-01-26T00:43:18.043Z,-1.70
2023-01-26T00:45:44.710Z,-1.80
2023-01-26T00:48:11.250Z,-1.80
2023-01-26T00:50:37.851Z,-1.90
2023-01-26T00:53:04.515Z,-1.90
2023-01-26T00:55:33.968Z,-1.90
2023-01-26T00:58:01.813Z,-1.90
2023-01-26T01:00:28.909Z,-1.90
2023-01-26T01:02:56.355Z,-2.00
2023-01-26T01:05:28.187Z,-2.00
2023-01-26T01:07:55.144Z,-2.00
2023-01-26T01:10:22.095Z,-2.00
2023-01-26T01:12:48.799Z,-2.00
2023-01-26T01:15:15.672Z,-2.10
2023-01-26T01:17:42.387Z,-2.10
2023-01-26T01:20:10.308Z,-2.10
2023-01-26T01:22:37.938Z,-2.10
2023-01-26T01:25:05.029Z,-2.10
2023-01-26T01:27:31.828Z,-2.10
2023-01-26T01:29:58.502Z,-2.10
2023-01-26T01:32:25.100Z,-2.10
2023-01-26T01:34:51.727Z,-2.10
2023-01-26T01:37:18.680Z,-2.20
2023-01-26T01:39:45.284Z,-2.20
2023-01-26T01:42:12.307Z,-2.20
2023-01-26T01:44:39.268Z,-2.20
2023-01-26T01:47:26.642Z,-2.20
2023-01-26T01:49:55.018Z,-2.20
2023-01-26T01:52:27.195Z,-2.30
2023-01-26T01:55:01.961Z,-2.20
2023-01-26T01:57:44.785Z,-2.20
2023-01-26T02:00:14.437Z,-2.20
2023-01-26T02:02:43.560Z,-2.20
2023-01-26T02:05:26.911Z,-2.20
2023-01-26T02:07:54.931Z,-2.20
2023-01-26T02:10:21.900Z,-2.20
2023-01-26T02:12:55.361Z,-2.20
2023-01-26T02:15:22.115Z,-2.20
2023-01-26T02:17:51.697Z,-2.30
2023-01-26T02:20:36.962Z,-2.30
2023-01-26T02:23:17.203Z,-2.20
2023-01-26T02:25:50.021Z,-2.20
2023-01-26T02:28:18.792Z,-2.20
2023-01-26T02:30:46.418Z,-2.20
2023-01-26T02:33:20.404Z,-2.20
2023-01-26T02:35:47.043Z,-2.20
2023-01-26T02:38:13.592Z,-2.20
2023-01-26T02:40:44.884Z,-2.20
2023-01-26T02:43:11.700Z,-2.20
2023-01-26T02:45:40.313Z,-2.20
2023-01-26T02:48:08.054Z,-2.20
2023-01-26T02:50:35.231Z,-2.20
2023-01-26T02:53:02.581Z,-2.20
2023-01-26T02:55:29.572Z,-2.30
2023-01-26T02:57:58.818Z,-2.30
2023-01-26T03:00:29.896Z,-2.40
2023-01-26T03:03:00.682Z,-2.40
2023-01-26T03:05:28.353Z,-2.40
2023-01-26T03:07:55.435Z,-2.40
2023-01-26T03:10:24.159Z,-2.40
2023-01-26T03:12:50.847Z,-2.40
2023-01-26T03:15:43.247Z,-2.40
2023-01-26T03:18:29.888Z,-2.40
2023-01-26T03:21:16.934Z,-2.40
2023-01-26T03:24:02.395Z,-2.40
2023-01-26T03:26:48.042Z,-2.40
2023-01-26T03:29:14.948Z,-2.40
2023-01-26T03:31:41.732Z,-2.40
2023-01-26T03:34:08.408Z,-2.40
2023-01-26T03:36:35.017Z,-2.40
2023-01-26T03:39:01.614Z,-2.40
2023-01-26T03:41:47.162Z,-2.40
2023-01-26T03:44:32.547Z,-2.40
2023-01-26T03:47:18.527Z,-2.40
2023-01-26T03:50:04.109Z,-2.40
2023-01-26T03:52:51.999Z,-2.40
2023-01-26T03:55:37.664Z,-2.40
2023-01-26T03:58:04.285Z,-2.30
2023-01-26T04:00:30.989Z,-2.30
2023-01-26T04:03:16.340Z,-2.30
2023-01-26T04:06:15.519Z,-2.30
2023-01-26T04:08:44.609Z,-2.30
2023-01-26T04:11:11.233Z,-2.30
2023-01-26T04:13:56.356Z,-2.20
2023-01-26T04:16:41.989Z,-2.20
2023-01-26T04:19:27.163Z,-2.20
2023-01-26T04:21:53.847Z,-2.20
2023-01-26T04:24:22.461Z,-2.20
2023-01-26T04:26:49.325Z,-2.20
2023-01-26T04:29:16.634Z,-2.20
2023-01-26T04:31:44.189Z,-2.20
2023-01-26T04:34:13.783Z,-2.20
2023-01-26T04:36:41.158Z,-2.20
2023-01-26T04:39:08.098Z,-2.20
2023-01-26T04:41:34.926Z,-2.20
2023-01-26T04:44:01.762Z,-2.20
2023-01-26T04:46:28.408Z,-2.10
2023-01-26T04:48:54.985Z,-2.10
2023-01-26T04:51:22.753Z,-2.10
2023-01-26T04:53:49.954Z,-2.10
2023-01-26T04:56:27.859Z,-2.20
2023-01-26T04:58:55.388Z,-2.10
2023-01-26T05:01:22.150Z,-2.20
2023-01-26T05:03:48.863Z,-2.10
2023-01-26T05:06:15.477Z,-2.10
2023-01-26T05:08:42.377Z,-2.10
2023-01-26T05:11:09.289Z,-2.10
2023-01-26T05:13:36.250Z,-2.20
2023-01-26T05:16:06.267Z,-2.20
2023-01-26T05:18:32.950Z,-2.20
2023-01-26T05:20:59.548Z,-2.20
2023-01-26T05:23:26.555Z,-2.20
2023-01-26T05:25:53.285Z,-2.20
2023-01-26T05:28:19.860Z,-2.20
2023-01-26T05:30:47.704Z,-2.20
2023-01-26T05:33:15.788Z,-2.20
2023-01-26T05:35:42.843Z,-2.20
2023-01-26T05:38:09.515Z,-2.20
2023-01-26T05:40:36.101Z,-2.20
2023-01-26T05:43:02.825Z,-2.20
2023-01-26T05:45:29.518Z,-2.20
2023-01-26T05:47:56.219Z,-2.20
2023-01-26T05:50:22.849Z,-2.10
2023-01-26T05:52:49.906Z,-2.20
2023-01-26T05:55:16.637Z,-2.10
2023-01-26T05:57:43.338Z,-2.10
2023-01-26T06:00:12.418Z,-2.10
2023-01-26T06:02:39.560Z,-2.10
2023-01-26T06:05:06.891Z,-2.10
2023-01-26T06:07:34.051Z,-2.10
2023-01-26T06:10:00.782Z,-2.10
2023-01-26T06:12:31.486Z,-2.10
2023-01-26T06:14:58.674Z,-2.10
2023-01-26T06:17:25.365Z,-2.10
2023-01-26T06:19:52.021Z,-2.10
2023-01-26T06:22:18.640Z,-2.00
2023-01-26T06:24:45.622Z,-2.00
2023-01-26T06:27:14.464Z,-2.00
2023-01-26T06:29:41.919Z,-2.00
2023-01-26T06:32:11.583Z,-2.00
2023-01-26T06:34:38.336Z,-2.00
2023-01-26T06:37:05.483Z,-2.00
2023-01-26T06:39:32.171Z,-2.00
2023-01-26T06:41:58.695Z,-2.00
2023-01-26T06:44:25.424Z,-1.90
2023-01-26T06:46:52.111Z,-1.90
2023-01-26T06:49:18.870Z,-1.90
2023-01-26T06:51:45.524Z,-1.90
2023-01-26T06:54:12.760Z,-1.90
2023-01-26T06:56:40.140Z,-1.80
2023-01-26T06:59:06.907Z,-1.90
2023-01-26T07:01:37.200Z,-1.80
2023-01-26T07:04:03.986Z,-1.90
2023-01-26T07:06:30.761Z,-1.90
2023-01-26T07:08:57.421Z,-1.90
2023-01-26T07:11:25.415Z,-1.90
2023-01-26T07:13:52.416Z,-1.90
2023-01-26T07:16:19.145Z,-1.90
2023-01-26T07:18:45.900Z,-1.90
2023-01-26T07:21:21.434Z,-1.90
2023-01-26T07:23:48.330Z,-1.80
2023-01-26T07:26:15.095Z,-1.80
2023-01-26T07:28:41.853Z,-1.80
2023-01-26T07:31:10.584Z,-1.80
2023-01-26T07:33:37.567Z,-1.80
2023-01-26T07:36:06.349Z,-1.70
2023-01-26T07:38:34.196Z,-1.80
2023-01-26T07:41:05.765Z,-1.80
2023-01-26T07:43:34.529Z,-1.80
2023-01-26T07:46:01.369Z,-1.80
2023-01-26T07:48:29.823Z,-1.80
2023-01-26T07:51:00.008Z,-1.80
2023-01-26T07:53:29.303Z,-1.70
2023-01-26T07:56:09.522Z,-1.80
2023-01-26T07:58:36.277Z,-1.80
2023-01-26T08:01:11.543Z,-1.80
2023-01-26T08:03:38.883Z,-1.80
2023-01-26T08:06:06.852Z,-1.80
2023-01-26T08:08:34.067Z,-1.70
2023-01-26T08:11:02.029Z,-1.80
2023-01-26T08:13:35.314Z,-1.70
2023-01-26T08:16:12.592Z,-1.70
2023-01-26T08:18:44.849Z,-1.60
2023-01-26T08:21:14.435Z,-1.60
2023-01-26T08:23:41.139Z,-1.60
2023-01-26T08:26:09.228Z,-1.60
2023-01-26T08:28:36.748Z,-1.60
2023-01-26T08:31:11.170Z,-1.60
2023-01-26T08:33:40.357Z,-1.60
2023-01-26T08:36:10.089Z,-1.50
2023-01-26T08:38:36.943Z,-1.50
2023-01-26T08:41:03.817Z,-1.50
2023-01-26T08:43:30.789Z,-1.50
2023-01-26T08:45:57.837Z,-1.50
2023-01-26T08:48:24.506Z,-1.40
2023-01-26T08:50:54.800Z,-1.40
2023-01-26T08:53:21.972Z,-1.40
2023-01-26T08:55:48.937Z,-1.40
2023-01-26T08:58:16.052Z,-1.40
2023-01-26T09:00:42.723Z,-1.30
2023-01-26T09:03:09.424Z,-1.30
2023-01-26T09:05:38.237Z,-1.20
2023-01-26T09:08:06.240Z,-1.20
2023-01-26T09:10:33.606Z,-1.10
2023-01-26T09:13:01.152Z,-1.10
2023-01-26T09:15:28.108Z,-1.10
2023-01-26T09:17:54.812Z,-1.10
2023-01-26T09:20:21.508Z,-1.10
2023-01-26T09:22:48.119Z,-1.10
2023-01-26T09:25:15.184Z,-1.00
2023-01-26T09:27:41.898Z,-1.00
2023-01-26T09:30:09.567Z,-1.00
2023-01-26T09:32:36.201Z,-0.90
2023-01-26T09:35:02.774Z,-0.90
2023-01-26T09:37:29.615Z,-0.80
2023-01-26T09:39:56.251Z,-0.80
2023-01-26T09:42:35.103Z,-0.80
2023-01-26T09:45:07.945Z,-0.80
2023-01-26T09:48:01.580Z,-0.70
2023-01-26T09:50:40.674Z,-0.70
2023-01-26T09:53:14.446Z,-0.70
2023-01-26T09:55:42.740Z,-0.70
2023-01-26T09:58:22.211Z,-0.60
2023-01-26T10:00:52.424Z,-0.60
2023-01-26T10:03:44.001Z,-0.70
2023-01-26T10:06:28.269Z,-0.70
2023-01-26T10:08:57.558Z,-0.70
2023-01-26T10:11:28.849Z,-0.70
2023-01-26T10:14:01.746Z,-0.70
2023-01-26T10:16:28.855Z,-0.70
2023-01-26T10:18:55.555Z,-0.70
2023-01-26T10:21:26.624Z,-0.70
2023-01-26T10:23:53.756Z,-0.70
2023-01-26T10:26:23.397Z,-0.70
2023-01-26T10:28:52.291Z,-0.70
2023-01-26T10:31:22.387Z,-0.60
2023-01-26T10:33:55.552Z,-0.60
2023-01-26T10:36:22.759Z,-0.60
2023-01-26T10:38:51.421Z,-0.60
2023-01-26T10:41:27.041Z,-0.60
2023-01-26T10:43:55.176Z,-0.60
2023-01-26T10:46:42.401Z,-0.60
2023-01-26T10:49:09.027Z,-0.50
2023-01-26T10:51:36.866Z,-0.60
2023-01-26T10:54:23.653Z,-0.60
2023-01-26T10:57:00.280Z,-0.50
2023-01-26T10:59:31.949Z,-0.50
2023-01-26T11:02:21.084Z,-0.60
2023-01-26T11:05:06.651Z,-0.50
2023-01-26T11:07:42.544Z,-0.40
2023-01-26T11:10:35.465Z,-0.40
2023-01-26T11:13:22.535Z,-0.30
2023-01-26T11:15:53.109Z,-0.20
2023-01-26T11:18:34.008Z,-0.10
2023-01-26T11:21:32.066Z,0.00
2023-01-26T11:24:23.877Z,0.10
2023-01-26T11:27:25.986Z,0.20
2023-01-26T11:30:22.894Z,0.30
2023-01-26T11:33:06.655Z,0.30
2023-01-26T11:35:42.166Z,0.30
2023-01-26T11:38:30.226Z,0.30
2023-01-26T11:41:12.289Z,0.30
2023-01-26T11:44:05.945Z,0.40
2023-01-26T11:46:52.728Z,0.40
2023-01-26T11:49:19.435Z,0.40
2023-01-26T11:51:58.160Z,0.50
2023-01-26T11:54:47.120Z,0.60
2023-01-26T11:57:27.788Z,0.60
2023-01-26T12:00:00.359Z,0.60
2023-01-26T12:02:34.265Z,0.60
2023-01-26T12:05:28.405Z,0.60
2023-01-26T12:08:02.096Z,0.60
2023-01-26T12:10:45.706Z,0.60
2023-01-26T12:13:16.806Z,0.60
2023-01-26T12:15:55.175Z,0.70
2023-01-26T12:18:47.126Z,0.70
2023-01-26T12:21:24.808Z,0.80
2023-01-26T12:24:39.568Z,0.80
2023-01-26T12:27:09.653Z,0.70
2023-01-26T12:29:54.618Z,0.70
2023-01-26T12:32:22.631Z,0.60
2023-01-26T12:34:49.584Z,0.60
2023-01-26T12:37:51.998Z,0.60
2023-01-26T12:40:32.801Z,0.60
2023-01-26T12:43:20.981Z,0.60
2023-01-26T12:45:51.370Z,0.50
2023-01-26T12:48:27.180Z,0.50
2023-01-26T12:51:08.886Z,0.50
2023-01-26T12:53:49.053Z,0.50
2023-01-26T12:56:24.059Z,0.50
2023-01-26T12:58:52.631Z,0.50
2023-01-26T13:01:24.903Z,0.50
2023-01-26T13:03:53.305Z,0.50
2023-01-26T13:06:24.568Z,0.60
2023-01-26T13:09:05.907Z,0.50
2023-01-26T13:11:52.693Z,0.50
2023-01-26T13:14:58.136Z,0.50
2023-01-26T13:17:27.269Z,0.40
2023-01-26T13:19:59.672Z,0.30
2023-01-26T13:22:26.376Z,0.40
2023-01-26T13:24:57.156Z,0.30
2023-01-26T13:27:35.092Z,0.30
2023-01-26T13:30:01.987Z,0.30
2023-01-26T13:32:28.580Z,0.20
2023-01-26T13:35:00.291Z,0.20
2023-01-26T13:37:45.096Z,0.20
2023-01-26T13:40:31.600Z,0.20
2023-01-26T13:43:25.928Z,0.20
2023-01-26T13:46:29.541Z,0.20
2023-01-26T13:48:57.131Z,0.20
2023-01-26T13:51:27.556Z,0.20
2023-01-26T13:54:14.199Z,0.20
2023-01-26T13:56:42.605Z,0.20
2023-01-26T13:59:14.148Z,0.20
2023-01-26T14:01:45.768Z,0.20
2023-01-26T14:04:21.679Z,0.20
2023-01-26T14:06:56.975Z,0.10
2023-01-26T14:09:27.439Z,0.10
2023-01-26T14:12:01.180Z,0.20
2023-01-26T14:14:31.144Z,0.10
2023-01-26T14:16:59.481Z,0.10
2023-01-26T14:19:27.780Z,0.10
2023-01-26T14:21:55.787Z,0.10
2023-01-26T14:24:32.051Z,0.10
2023-01-26T14:26:59.190Z,0.10
2023-01-26T14:29:28.281Z,0.10
2023-01-26T14:31:57.250Z,0.10
2023-01-26T14:34:27.283Z,0.10
2023-01-26T14:37:17.253Z,0.10
2023-01-26T14:39:47.777Z,0.10
2023-01-26T14:42:21.179Z,0.10
2023-01-26T14:44:47.866Z,0.10
2023-01-26T14:47:19.820Z,0.10
2023-01-26T14:49:53.698Z,0.10
2023-01-26T14:52:29.571Z,0.10
2023-01-26T14:54:58.689Z,0.10
2023-01-26T14:57:28.024Z,0.10
2023-01-26T14:59:57.805Z,0.10
2023-01-26T15:02:38.676Z,0.10
2023-01-26T15:05:20.773Z,0.10
2023-01-26T15:07:56.501Z,0.00
2023-01-26T15:10:38.243Z,0.10
2023-01-26T15:13:10.995Z,0.00
2023-01-26T15:15:39.997Z,0.10
2023-01-26T15:18:19.147Z,0.10
2023-01-26T15:21:00.610Z,0.00
2023-01-26T15:23:34.430Z,0.00
2023-01-26T15:26:06.367Z,0.00
2023-01-26T15:28:33.617Z,0.00
2023-01-26T15:31:00.866Z,0.00
2023-01-26T15:33:41.044Z,0.00
2023-01-26T15:36:25.121Z,0.00
2023-01-26T15:39:13.643Z,0.00
2023-01-26T15:41:45.707Z,0.00
2023-01-26T15:44:17.755Z,0.00
2023-01-26T15:46:44.919Z,0.00
2023-01-26T15:49:13.304Z,-0.10
2023-01-26T15:51:40.128Z,-0.10
2023-01-26T15:54:06.850Z,-0.10
2023-01-26T15:56:33.567Z,-0.10
2023-01-26T15:59:00.312Z,-0.10
2023-01-26T16:01:27.254Z,-0.10
2023-01-26T16:03:54.011Z,-0.10
2023-01-26T16:06:27.162Z,-0.10
2023-01-26T16:08:55.113Z,-0.10
2023-01-26T16:11:24.683Z,-0.20
2023-01-26T16:14:02.819Z,-0.10
2023-01-26T16:16:31.122Z,-0.10
2023-01-26T16:18:57.807Z,-0.10
2023-01-26T16:21:31.308Z,-0.20
2023-01-26T16:23:58.119Z,-0.10
2023-01-26T16:26:26.398Z,-0.10
2023-01-26T16:28:53.170Z,-0.10
2023-01-26T16:31:23.467Z,-0.10
2023-01-26T16:33:51.002Z,-0.10
2023-01-26T16:36:19.201Z,-0.10
2023-01-26T16:38:47.060Z,-0.10
2023-01-26T16:41:28.427Z,-0.10
2023-01-26T16:43:57.058Z,-0.10
2023-01-26T16:46:24.662Z,-0.10
2023-01-26T16:48:51.646Z,-0.10
2023-01-26T16:51:21.405Z,-0.10
2023-01-26T16:53:48.692Z,-0.10
2023-01-26T16:56:16.527Z,-0.10
2023-01-26T16:58:43.410Z,-0.10
2023-01-26T17:01:23.658Z,-0.10
2023-01-26T17:03:50.810Z,-0.10
2023-01-26T17:06:19.109Z,-0.10
2023-01-26T17:08:46.448Z,-0.10
2023-01-26T17:11:26.099Z,-0.10
2023-01-26T17:13:56.059Z,-0.10
2023-01-26T17:16:25.914Z,-0.10
2023-01-26T17:18:52.650Z,-0.10
2023-01-26T17:21:20.093Z,-0.10
2023-01-26T17:23:51.882Z,-0.10
2023-01-26T17:26:20.173Z,-0.10
2023-01-26T17:28:49.034Z,-0.10
2023-01-26T17:31:20.663Z,-0.10
2023-01-26T17:33:48.855Z,-0.10
2023-01-26T17:36:17.465Z,-0.10
2023-01-26T17:38:44.593Z,-0.10
2023-01-26T17:41:11.328Z,-0.10
2023-01-26T17:43:38.004Z,-0.10
2023-01-26T17:46:13.476Z,-0.10
2023-01-26T17:48:40.246Z,-0.10
2023-01-26T17:51:12.185Z,-0.10
2023-01-26T17:53:41.057Z,-0.10
2023-01-26T17:56:13.116Z,-0.10
2023-01-26T17:58:40.373Z,-0.10
2023-01-26T18:01:08.916Z,-0.10
2023-01-26T18:03:39.944Z,-0.10
2023-01-26T18:06:06.721Z,-0.10
2023-01-26T18:08:33.464Z,-0.10
2023-01-26T18:11:01.837Z,-0.10
2023-01-26T18:13:30.344Z,-0.10
2023-01-26T18:15:57.349Z,-0.10
2023-01-26T18:18:25.435Z,-0.10
2023-01-26T18:20:52.280Z,-0.10
2023-01-26T18:23:19.824Z,-0.10
2023-01-26T18:25:46.582Z,-0.10
2023-01-26T18:28:14.449Z,-0.10
2023-01-26T18:30:41.515Z,-0.10
2023-01-26T18:33:09.401Z,-0.10
2023-01-26T18:35:36.261Z,-0.10
2023-01-26T18:38:04.579Z,-0.10
2023-01-26T18:40:31.197Z,0.00
2023-01-26T18:42:57.820Z,0.00
2023-01-26T18:45:24.504Z,0.00
2023-01-26T18:47:51.088Z,0.00
2023-01-26T18:50:18.438Z,0.00
2023-01-26T18:52:45.145Z,0.00
2023-01-26T18:55:12.313Z,0.00
2023-01-26T18:57:39.623Z,0.00
2023-01-26T19:00:08.139Z,0.00
2023-01-26T19:02:39.434Z,0.00
2023-01-26T19:05:07.450Z,0.00
2023-01-26T19:07:35.021Z,0.00
2023-01-26T19:10:01.983Z,0.10
2023-01-26T19:12:28.682Z,0.10
2023-01-26T19:14:55.359Z,0.10
2023-01-26T19:17:24.313Z,0.10
2023-01-26T19:19:59.495Z,0.10
2023-01-26T19:22:26.229Z,0.10
2023-01-26T19:24:52.984Z,0.10
2023-01-26T19:27:19.829Z,0.10
2023-01-26T19:29:46.517Z,0.10
2023-01-26T19:32:13.223Z,0.10
2023-01-26T19:34:39.946Z,0.10
2023-01-26T19:37:06.574Z,0.10
2023-01-26T19:39:33.169Z,0.10
2023-01-26T19:41:59.886Z,0.10
2023-01-26T19:44:27.079Z,0.20
2023-01-26T19:46:54.572Z,0.10
2023-01-26T19:49:21.775Z,0.10
2023-01-26T19:51:48.849Z,0.20
2023-01-26T19:54:15.931Z,0.20
2023-01-26T19:56:42.648Z,0.20
2023-01-26T19:59:11.435Z,0.20
2023-01-26T20:01:39.440Z,0.20
2023-01-26T20:04:09.344Z,0.20
2023-01-26T20:06:37.260Z,0.20
2023-01-26T20:09:06.525Z,0.20
2023-01-26T20:11:34.150Z,0.20
2023-01-26T20:14:03.953Z,0.30
2023-01-26T20:16:30.849Z,0.20
2023-01-26T20:18:59.182Z,0.30
2023-01-26T20:21:27.077Z,0.30
2023-01-26T20:23:55.825Z,0.20
2023-01-26T20:26:24.593Z,0.30
2023-01-26T20:28:51.752Z,0.30
2023-01-26T20:31:22.006Z,0.30
2023-01-26T20:33:50.271Z,0.30
2023-01-26T20:36:19.460Z,0.30
2023-01-26T20:38:47.600Z,0.30
2023-01-26T20:41:17.565Z,0.30
2023-01-26T20:43:58.759Z,0.30
2023-01-26T20:46:32.155Z,0.30
2023-01-26T20:48:59.637Z,0.40
2023-01-26T20:51:30.591Z,0.40
2023-01-26T20:53:58.184Z,0.40
2023-01-26T20:56:25.080Z,0.40
2023-01-26T20:58:53.359Z,0.30
2023-01-26T21:01:20.843Z,0.40
2023-01-26T21:03:47.691Z,0.40
2023-01-26T21:06:18.489Z,0.40
2023-01-26T21:08:49.673Z,0.40
2023-01-26T21:11:17.300Z,0.40
2023-01-26T21:13:45.209Z,0.40
2023-01-26T21:16:16.327Z,0.40
2023-01-26T21:18:44.656Z,0.40
2023-01-26T21:21:13.662Z,0.40
2023-01-26T21:23:40.407Z,0.40
2023-01-26T21:26:13.139Z,0.40
2023-01-26T21:28:40.733Z,0.40
2023-01-26T21:31:16.557Z,0.40
2023-01-26T21:33:45.457Z,0.40
2023-01-26T21:36:15.081Z,0.40
2023-01-26T21:38:44.157Z,0.40
2023-01-26T21:41:31.791Z,0.40
2023-01-26T21:44:05.942Z,0.40
2023-01-26T21:46:33.717Z,0.40
2023-01-26T21:49:00.688Z,0.40
2023-01-26T21:51:46.384Z,0.40
2023-01-26T21:54:13.806Z,0.50
2023-01-26T21:56:40.497Z,0.50
2023-01-26T21:59:10.080Z,0.50
2023-01-26T22:01:39.191Z,0.50
2023-01-26T22:04:09.186Z,0.50
2023-01-26T22:06:37.197Z,0.50
2023-01-26T22:09:05.366Z,0.50
2023-01-26T22:11:32.442Z,0.50
2023-01-26T22:13:59.040Z,0.60
2023-01-26T22:16:26.426Z,0.60
2023-01-26T22:18:53.263Z,0.60
2023-01-26T22:21:20.442Z,0.60
2023-01-26T22:23:47.257Z,0.60
2023-01-26T22:26:22.144Z,0.60
2023-01-26T22:28:53.966Z,0.60
2023-01-26T22:31:23.437Z,0.60
2023-01-26T22:33:50.562Z,0.60
2023-01-26T22:36:18.566Z,0.60
2023-01-26T22:38:46.263Z,0.60
2023-01-26T22:41:21.739Z,0.60
2023-01-26T22:43:49.780Z,0.60
2023-01-26T22:46:19.012Z,0.60
2023-01-26T22:48:46.108Z,0.60
2023-01-26T22:51:17.999Z,0.60
2023-01-26T22:53:45.235Z,0.60
2023-01-26T22:56:12.619Z,0.60
2023-01-26T22:58:56.509Z,0.60
2023-01-26T23:01:24.600Z,0.60
2023-01-26T23:03:53.237Z,0.60
2023-01-26T23:06:20.661Z,0.60
2023-01-26T23:08:47.644Z,0.60
2023-01-26T23:11:17.413Z,0.70
2023-01-26T23:13:45.259Z,0.60
2023-01-26T23:16:12.960Z,0.60
2023-01-26T23:18:40.482Z,0.60
2023-01-26T23:21:08.433Z,0.60
2023-01-26T23:23:35.237Z,0.60
2023-01-26T23:26:02.391Z,0.60
2023-01-26T23:28:35.010Z,0.60
2023-01-26T23:31:02.254Z,0.70
2023-01-26T23:33:31.175Z,0.60
2023-01-26T23:35:58.299Z,0.60
2023-01-26T23:38:26.640Z,0.60
2023-01-26T23:40:53.384Z,0.60
2023-01-26T23:43:20.563Z,0.60
2023-01-26T23:45:50.577Z,0.70
2023-01-26T23:48:17.666Z,0.60
2023-01-26T23:50:44.361Z,0.60
2023-01-26T23:53:11.481Z,0.60
2023-01-26T23:55:41.777Z,0.60
2023-01-26T23:58:09.400Z,0.60
